createdAt,value
2023-04-07T00:01:24.183Z,5.03
2023-04-07T00:03:52.148Z,4.97
2023-04-07T00:06:20.052Z,5.43
2023-04-07T00:08:49.170Z,4.93
2023-04-07T00:11:16.959Z,5.50
2023-04-07T00:13:44.712Z,5.47
2023-04-07T00:16:12.507Z,4.80
2023-04-07T00:18:40.342Z,5.40
2023-04-07T00:21:08.113Z,5.40
2023-04-07T00:23:36.084Z,5.10
2023-04-07T00:26:05.264Z,4.57
2023-04-07T00:28:33.141Z,5.23
2023-04-07T00:31:01.271Z,5.13
2023-04-07T00:33:29.056Z,5.40
2023-04-07T00:35:57.967Z,5.03
2023-04-07T00:38:26.017Z,5.90
2023-04-07T00:40:58.793Z,5.43
2023-04-07T00:43:28.201Z,5.57
2023-04-07T00:45:56.176Z,5.23
2023-04-07T00:48:24.284Z,5.90
2023-04-07T00:50:52.444Z,5.50
2023-04-07T00:53:20.942Z,5.90
2023-04-07T00:55:50.068Z,5.50
2023-04-07T00:58:18.146Z,5.63
2023-04-07T01:00:53.646Z,5.30
2023-04-07T01:03:27.318Z,5.27
2023-04-07T01:06:00.849Z,5.00
2023-04-07T01:08:35.577Z,5.00
2023-04-07T01:11:12.586Z,5.40
2023-04-07T01:13:46.258Z,5.30
2023-04-07T01:16:43.477Z,5.80
2023-04-07T01:19:21.404Z,5.10
2023-04-07T01:21:58.672Z,5.53
2023-04-07T01:24:47.160Z,5.80
2023-04-07T01:27:22.814Z,6.43
2023-04-07T01:29:54.797Z,6.27
2023-04-07T01:32:25.073Z,6.87
2023-04-07T01:34:55.250Z,6.33
2023-04-07T01:37:23.924Z,5.60
2023-04-07T01:39:52.716Z,5.77
2023-04-07T01:42:22.019Z,5.77
2023-04-07T01:44:51.874Z,6.03
2023-04-07T01:47:21.882Z,6.43
2023-04-07T01:49:51.738Z,6.37
2023-04-07T01:52:19.761Z,6.23
2023-04-07T01:54:48.209Z,6.27
2023-04-07T01:57:16.105Z,6.37
2023-04-07T01:59:44.843Z,6.40
2023-04-07T02:02:12.969Z,6.17
2023-04-07T02:04:50.378Z,6.37
2023-04-07T02:07:21.850Z,7.80
2023-04-07T02:09:54.610Z,7.13
2023-04-07T02:12:24.139Z,7.47
2023-04-07T02:15:05.290Z,7.37
2023-04-07T02:17:35.877Z,8.20
2023-04-07T02:20:07.828Z,7.60
2023-04-07T02:22:36.136Z,7.67
2023-04-07T02:25:03.973Z,8.90
2023-04-07T02:27:31.760Z,7.97
2023-04-07T02:29:59.542Z,8.00
2023-04-07T02:32:27.327Z,8.40
2023-04-07T02:34:55.435Z,10.43
2023-04-07T02:37:24.571Z,9.60
2023-04-07T02:39:52.382Z,10.03
2023-04-07T02:42:21.470Z,9.73
2023-04-07T02:44:50.078Z,9.33
2023-04-07T02:47:18.034Z,10.47
2023-04-07T02:49:46.190Z,10.10
2023-04-07T02:52:13.924Z,9.47
2023-04-07T02:54:43.121Z,10.43
2023-04-07T02:57:13.668Z,9.60
2023-04-07T02:59:41.668Z,10.07
2023-04-07T03:02:11.463Z,11.00
2023-04-07T03:04:39.409Z,10.60
2023-04-07T03:07:07.349Z,10.20
2023-04-07T03:09:35.366Z,10.03
2023-04-07T03:12:04.861Z,10.23
2023-04-07T03:14:36.122Z,9.10
2023-04-07T03:17:04.970Z,9.80
2023-04-07T03:19:33.457Z,10.23
2023-04-07T03:22:01.384Z,9.47
2023-04-07T03:24:34.414Z,9.70
2023-04-07T03:27:05.353Z,9.47
2023-04-07T03:29:44.523Z,10.43
2023-04-07T03:32:14.898Z,9.87
2023-04-07T03:34:42.905Z,9.60
2023-04-07T03:37:10.830Z,9.50
2023-04-07T03:39:42.934Z,9.33
2023-04-07T03:42:25.122Z,10.03
2023-04-07T03:44:58.232Z,10.83
2023-04-07T03:47:26.372Z,8.70
2023-04-07T03:49:58.742Z,9.30
2023-04-07T03:52:27.689Z,10.10
2023-04-07T03:55:02.551Z,9.23
2023-04-07T03:57:34.398Z,8.83
2023-04-07T04:00:04.033Z,9.57
2023-04-07T04:02:44.189Z,9.17
2023-04-07T04:05:16.894Z,9.60
2023-04-07T04:07:44.636Z,9.83
2023-04-07T04:10:12.609Z,9.93
2023-04-07T04:12:45.666Z,9.37
2023-04-07T04:15:14.580Z,8.87
2023-04-07T04:17:42.810Z,8.10
2023-04-07T04:20:11.408Z,9.40
2023-04-07T04:22:48.537Z,10.03
2023-04-07T04:25:17.614Z,10.23
2023-04-07T04:27:50.912Z,10.10
2023-04-07T04:30:22.480Z,10.67
2023-04-07T04:32:53.542Z,9.47
2023-04-07T04:35:28.789Z,8.97
2023-04-07T04:38:12.190Z,8.63
2023-04-07T04:40:44.866Z,9.47
2023-04-07T04:43:15.422Z,9.20
2023-04-07T04:45:43.228Z,8.63
2023-04-07T04:48:13.597Z,8.30
2023-04-07T04:50:43.390Z,9.30
2023-04-07T04:53:13.594Z,8.93
2023-04-07T04:55:52.168Z,8.57
2023-04-07T04:58:25.606Z,8.50
2023-04-07T05:00:58.215Z,8.67
2023-04-07T05:03:31.298Z,9.37
2023-04-07T05:06:03.840Z,8.23
2023-04-07T05:08:32.610Z,9.03
2023-04-07T05:11:01.371Z,9.40
2023-04-07T05:13:34.420Z,10.63
2023-04-07T05:16:04.719Z,10.20
2023-04-07T05:18:32.657Z,9.50
2023-04-07T05:21:01.896Z,9.60
2023-04-07T05:23:30.285Z,9.50
2023-04-07T05:25:58.233Z,9.50
2023-04-07T05:28:26.393Z,10.53
2023-04-07T05:30:58.220Z,11.03
2023-04-07T05:33:30.837Z,10.53
2023-04-07T05:35:58.788Z,10.00
2023-04-07T05:38:26.830Z,10.17
2023-04-07T05:40:59.293Z,10.27
2023-04-07T05:43:32.357Z,9.10
2023-04-07T05:46:01.827Z,10.30
2023-04-07T05:48:29.819Z,10.37
2023-04-07T05:50:57.667Z,9.77
2023-04-07T05:53:26.103Z,10.37
2023-04-07T05:55:53.900Z,11.23
2023-04-07T05:58:40.290Z,12.10
2023-04-07T06:01:10.816Z,11.80
2023-04-07T06:03:39.151Z,11.60
2023-04-07T06:06:16.498Z,13.53
2023-04-07T06:08:46.005Z,15.83
2023-04-07T06:11:14.244Z,16.23
2023-04-07T06:13:42.159Z,14.60
2023-04-07T06:16:11.557Z,17.03
2023-04-07T06:18:39.503Z,18.70
2023-04-07T06:21:07.895Z,16.53
2023-04-07T06:23:35.820Z,16.47
2023-04-07T06:26:07.452Z,16.67
2023-04-07T06:28:35.332Z,16.80
2023-04-07T06:31:03.089Z,19.67
2023-04-07T06:33:32.451Z,19.23
2023-04-07T06:36:00.217Z,19.13
2023-04-07T06:38:28.072Z,16.30
2023-04-07T06:40:55.810Z,17.23
2023-04-07T06:43:23.677Z,15.43
2023-04-07T06:45:56.954Z,15.43
2023-04-07T06:48:24.848Z,15.67
2023-04-07T06:50:53.997Z,14.77
2023-04-07T06:53:21.826Z,15.70
2023-04-07T06:55:49.595Z,17.87
2023-04-07T06:58:17.390Z,15.03
2023-04-07T07:00:45.145Z,18.37
2023-04-07T07:03:13.041Z,15.43
2023-04-07T07:05:41.048Z,15.63
2023-04-07T07:08:10.200Z,15.57
2023-04-07T07:10:38.013Z,15.37
2023-04-07T07:13:06.110Z,14.70
2023-04-07T07:15:33.969Z,13.57
2023-04-07T07:18:01.815Z,15.73
2023-04-07T07:20:29.683Z,14.77
2023-04-07T07:22:58.417Z,13.47
2023-04-07T07:25:27.841Z,13.83
2023-04-07T07:27:56.034Z,13.73
2023-04-07T07:30:25.455Z,14.23
2023-04-07T07:32:54.533Z,13.93
2023-04-07T07:35:23.171Z,13.93
2023-04-07T07:37:51.585Z,13.10
2023-04-07T07:40:19.750Z,14.07
2023-04-07T07:42:48.928Z,13.03
2023-04-07T07:45:19.457Z,14.37
2023-04-07T07:47:47.898Z,14.10
2023-04-07T07:50:15.759Z,14.97
2023-04-07T07:52:43.494Z,14.17
2023-04-07T07:55:11.333Z,13.37
2023-04-07T07:57:39.123Z,14.27
2023-04-07T08:00:09.783Z,13.20
2023-04-07T08:02:43.352Z,14.53
2023-04-07T08:05:11.370Z,12.67
2023-04-07T08:07:39.142Z,13.27
2023-04-07T08:10:07.881Z,14.47
2023-04-07T08:12:35.866Z,13.43
2023-04-07T08:15:03.801Z,12.13
2023-04-07T08:17:33.018Z,12.67
2023-04-07T08:20:02.211Z,13.33
2023-04-07T08:22:29.999Z,12.47
2023-04-07T08:24:57.759Z,12.70
2023-04-07T08:27:25.700Z,14.47
2023-04-07T08:30:00.776Z,13.77
2023-04-07T08:32:37.532Z,16.83
2023-04-07T08:35:06.092Z,12.17
2023-04-07T08:37:34.802Z,11.07
2023-04-07T08:40:03.950Z,10.80
2023-04-07T08:42:33.479Z,10.73
2023-04-07T08:45:04.400Z,10.63
2023-04-07T08:47:34.015Z,10.52
2023-04-07T08:50:05.476Z,10.27
2023-04-07T08:52:36.469Z,10.13
2023-04-07T08:55:06.861Z,10.33
2023-04-07T08:57:35.585Z,11.30
2023-04-07T09:00:05.738Z,10.45
2023-04-07T09:02:35.207Z,10.07
2023-04-07T09:05:06.776Z,9.70
2023-04-07T09:07:36.472Z,10.43
2023-04-07T09:10:04.669Z,10.35
2023-04-07T09:12:33.443Z,10.37
2023-04-07T09:15:01.616Z,11.00
2023-04-07T09:17:30.185Z,11.17
2023-04-07T09:19:59.209Z,10.83
2023-04-07T09:22:37.758Z,10.40
2023-04-07T09:25:16.983Z,11.07
2023-04-07T09:27:56.223Z,14.30
2023-04-07T09:30:24.669Z,12.87
2023-04-07T09:32:52.621Z,15.37
2023-04-07T09:35:23.136Z,15.30
2023-04-07T09:38:06.188Z,14.07
2023-04-07T09:40:34.476Z,15.18
2023-04-07T09:43:03.975Z,16.90
2023-04-07T09:45:36.240Z,14.83
2023-04-07T09:48:08.687Z,14.73
2023-04-07T09:50:38.067Z,13.50
2023-04-07T09:53:07.199Z,13.60
2023-04-07T09:55:36.257Z,13.52
2023-04-07T09:58:06.423Z,12.80
2023-04-07T10:00:34.447Z,13.87
2023-04-07T10:03:03.634Z,14.53
2023-04-07T10:05:33.639Z,13.43
2023-04-07T10:08:02.184Z,15.30
2023-04-07T10:10:32.660Z,14.35
2023-04-07T10:13:00.659Z,13.27
2023-04-07T10:15:28.519Z,13.90
2023-04-07T10:17:57.257Z,13.20
2023-04-07T10:20:26.160Z,12.80
2023-04-07T10:22:57.689Z,11.30
2023-04-07T10:25:27.169Z,12.77
2023-04-07T10:28:00.858Z,12.20
2023-04-07T10:30:34.082Z,13.30
2023-04-07T10:33:02.372Z,11.97
2023-04-07T10:35:30.389Z,15.00
2023-04-07T10:38:13.577Z,14.20
2023-04-07T10:40:42.907Z,12.83
2023-04-07T10:43:12.545Z,12.67
2023-04-07T10:46:00.575Z,13.47
2023-04-07T10:48:33.206Z,12.50
2023-04-07T10:51:17.694Z,13.13
2023-04-07T10:54:20.535Z,12.17
2023-04-07T10:57:15.843Z,10.77
2023-04-07T11:00:18.334Z,10.27
2023-04-07T11:02:46.763Z,12.10
2023-04-07T11:05:23.557Z,9.20
2023-04-07T11:07:55.042Z,8.57
2023-04-07T11:10:23.368Z,8.47
2023-04-07T11:13:06.274Z,9.00
2023-04-07T11:15:40.028Z,8.60
2023-04-07T11:18:13.692Z,10.63
2023-04-07T11:20:49.440Z,9.43
2023-04-07T11:23:18.813Z,11.53
2023-04-07T11:25:48.794Z,13.67
2023-04-07T11:28:16.942Z,7.95
2023-04-07T11:30:51.685Z,8.65
2023-04-07T11:33:21.434Z,9.68
2023-04-07T11:35:55.653Z,8.93
2023-04-07T11:38:25.157Z,20.55
2023-04-07T11:40:53.062Z,9.65
2023-04-07T11:43:22.868Z,7.30
2023-04-07T11:46:12.351Z,6.82
2023-04-07T11:48:41.736Z,6.60
2023-04-07T11:51:17.644Z,6.78
2023-04-07T11:53:46.345Z,7.50
2023-04-07T11:56:18.567Z,6.68
2023-04-07T11:58:50.051Z,6.05
2023-04-07T12:01:19.537Z,4.78
2023-04-07T12:03:59.907Z,4.32
2023-04-07T12:06:30.597Z,3.83
2023-04-07T12:08:58.506Z,3.30
2023-04-07T12:11:26.615Z,3.35
2023-04-07T12:13:54.444Z,3.17
2023-04-07T12:16:23.828Z,4.28
2023-04-07T12:18:52.501Z,3.10
2023-04-07T12:21:20.338Z,3.70
2023-04-07T12:23:49.065Z,3.63
2023-04-07T12:26:17.112Z,3.97
2023-04-07T12:28:45.268Z,2.53
2023-04-07T12:31:13.151Z,2.63
2023-04-07T12:33:42.217Z,2.27
2023-04-07T12:36:10.326Z,1.83
2023-04-07T12:38:38.149Z,2.10
2023-04-07T12:41:06.183Z,1.98
2023-04-07T12:43:33.960Z,2.20
2023-04-07T12:46:01.827Z,2.40
2023-04-07T12:48:29.672Z,1.85
2023-04-07T12:50:58.791Z,2.00
2023-04-07T12:53:27.179Z,2.00
2023-04-07T12:55:54.971Z,1.95
2023-04-07T12:58:22.834Z,2.97
2023-04-07T13:00:50.699Z,1.48
2023-04-07T13:03:18.624Z,14.52
2023-04-07T13:05:46.615Z,2.35
2023-04-07T13:08:15.840Z,1.98
2023-04-07T13:10:43.751Z,2.40
2023-04-07T13:13:11.536Z,1.50
2023-04-07T13:15:39.342Z,2.22
2023-04-07T13:18:08.189Z,1.50
2023-04-07T13:20:35.994Z,2.33
2023-04-07T13:23:08.148Z,1.65
2023-04-07T13:25:38.908Z,1.52
2023-04-07T13:28:06.951Z,1.73
2023-04-07T13:30:35.222Z,1.52
2023-04-07T13:33:03.193Z,1.90
2023-04-07T13:35:35.500Z,1.48
2023-04-07T13:38:04.522Z,1.65
2023-04-07T13:40:32.496Z,1.70
2023-04-07T13:43:01.650Z,1.50
2023-04-07T13:45:29.542Z,1.40
2023-04-07T13:47:57.455Z,2.10
2023-04-07T13:50:25.809Z,2.22
2023-04-07T13:52:53.535Z,1.55
2023-04-07T13:55:21.474Z,1.92
2023-04-07T13:57:49.254Z,2.60
2023-04-07T14:00:19.121Z,1.92
2023-04-07T14:02:48.353Z,1.73
2023-04-07T14:05:16.518Z,1.95
2023-04-07T14:07:44.277Z,1.60
2023-04-07T14:10:12.201Z,1.75
2023-04-07T14:12:40.093Z,2.28
2023-04-07T14:15:09.124Z,1.80
2023-04-07T14:17:38.494Z,1.70
2023-04-07T14:20:08.123Z,1.83
2023-04-07T14:22:36.048Z,2.42
2023-04-07T14:25:04.428Z,1.50
2023-04-07T14:27:32.354Z,1.65
2023-04-07T14:30:00.361Z,1.75
2023-04-07T14:32:29.389Z,1.75
2023-04-07T14:34:59.223Z,1.98
2023-04-07T14:37:28.475Z,1.70
2023-04-07T14:42:27.219Z,2.42
2023-04-07T14:44:54.974Z,2.10
2023-04-07T14:47:22.858Z,2.38
2023-04-07T14:49:53.217Z,2.10
2023-04-07T14:52:22.874Z,1.60
2023-04-07T14:54:50.670Z,2.30
2023-04-07T14:57:18.537Z,1.60
2023-04-07T14:59:46.416Z,3.03
2023-04-07T15:02:14.325Z,1.70
2023-04-07T15:04:42.348Z,1.70
2023-04-07T15:07:10.413Z,1.75
2023-04-07T15:09:39.607Z,2.70
2023-04-07T15:12:07.437Z,2.00
2023-04-07T15:14:35.370Z,2.00
2023-04-07T15:17:03.320Z,2.10
2023-04-07T15:19:31.234Z,1.77
2023-04-07T15:21:59.060Z,1.50
2023-04-07T15:24:26.808Z,3.00
2023-04-07T15:26:56.015Z,2.20
2023-04-07T15:29:23.844Z,1.83
2023-04-07T15:31:51.751Z,1.90
2023-04-07T15:34:19.626Z,2.20
2023-04-07T15:36:47.447Z,2.10
2023-04-07T15:39:16.797Z,2.05
2023-04-07T15:41:44.606Z,2.00
2023-04-07T15:44:18.261Z,2.40
2023-04-07T15:46:46.177Z,2.10
2023-04-07T15:49:14.188Z,2.08
2023-04-07T15:51:42.006Z,3.15
2023-04-07T15:54:09.841Z,2.60
2023-04-07T15:56:37.614Z,2.13
2023-04-07T15:59:05.408Z,2.55
2023-04-07T16:01:34.625Z,2.00
2023-04-07T16:04:02.668Z,3.13
2023-04-07T16:06:31.770Z,2.08
2023-04-07T16:08:59.624Z,2.30
2023-04-07T16:11:27.568Z,2.85
2023-04-07T16:13:55.388Z,1.80
2023-04-07T16:16:23.304Z,2.58
2023-04-07T16:18:53.040Z,2.00
2023-04-07T16:21:20.844Z,2.28
2023-04-07T16:23:48.859Z,1.83
2023-04-07T16:26:16.840Z,2.38
2023-04-07T16:28:44.647Z,2.10
2023-04-07T16:31:12.460Z,2.10
2023-04-07T16:33:40.246Z,1.80
2023-04-07T16:36:09.676Z,1.70
2023-04-07T16:38:37.469Z,2.10
2023-04-07T16:41:08.171Z,1.90
2023-04-07T16:43:35.943Z,2.00
2023-04-07T16:46:04.234Z,2.85
2023-04-07T16:48:32.082Z,1.98
2023-04-07T16:50:59.873Z,2.10
2023-04-07T16:53:29.179Z,2.00
2023-04-07T16:55:56.986Z,1.98
2023-04-07T16:58:24.762Z,2.70
2023-04-07T17:00:52.528Z,2.53
2023-04-07T17:03:20.550Z,2.80
2023-04-07T17:05:49.430Z,3.03
2023-04-07T17:08:17.264Z,2.80
2023-04-07T17:10:46.383Z,2.30
2023-04-07T17:13:14.145Z,2.83
2023-04-07T17:15:41.990Z,2.08
2023-04-07T17:18:09.913Z,2.70
2023-04-07T17:20:37.728Z,3.00
2023-04-07T17:23:05.556Z,3.30
2023-04-07T17:25:33.437Z,2.40
2023-04-07T17:28:02.649Z,2.58
2023-04-07T17:30:30.511Z,3.28
2023-04-07T17:32:58.455Z,2.70
2023-04-07T17:35:26.427Z,2.10
2023-04-07T17:37:56.337Z,2.63
2023-04-07T17:40:24.454Z,2.75
2023-04-07T17:42:52.328Z,2.67
2023-04-07T17:45:21.603Z,2.75
2023-04-07T17:47:49.980Z,3.28
2023-04-07T17:50:18.342Z,3.40
2023-04-07T17:52:46.185Z,4.13
2023-04-07T17:55:14.075Z,4.10
2023-04-07T17:57:42.893Z,3.63
2023-04-07T18:00:11.650Z,4.20
2023-04-07T18:02:44.208Z,4.68
2023-04-07T18:05:12.865Z,4.65
2023-04-07T18:07:41.345Z,4.40
2023-04-07T18:10:10.744Z,4.43
2023-04-07T18:12:39.028Z,4.57
2023-04-07T18:15:08.041Z,5.03
2023-04-07T18:17:35.878Z,5.07
2023-04-07T18:20:06.044Z,5.18
2023-04-07T18:22:34.343Z,5.13
2023-04-07T18:25:02.560Z,5.67
2023-04-07T18:27:30.552Z,6.35
2023-04-07T18:29:58.659Z,6.53
2023-04-07T18:32:26.609Z,6.70
2023-04-07T18:34:54.968Z,8.15
2023-04-07T18:37:24.385Z,7.17
2023-04-07T18:39:52.396Z,7.60
2023-04-07T18:42:20.393Z,7.80
2023-04-07T18:44:48.238Z,7.90
2023-04-07T18:47:16.265Z,8.55
2023-04-07T18:49:44.055Z,7.77
2023-04-07T18:52:11.936Z,9.27
2023-04-07T18:54:41.092Z,9.15
2023-04-07T18:57:08.868Z,8.80
2023-04-07T18:59:36.907Z,9.80
2023-04-07T19:02:04.742Z,8.27
2023-04-07T19:04:32.539Z,8.20
2023-04-07T19:07:00.337Z,9.18
2023-04-07T19:09:28.382Z,8.57
2023-04-07T19:11:57.887Z,8.83
2023-04-07T19:14:25.777Z,10.15
2023-04-07T19:16:53.669Z,9.10
2023-04-07T19:19:21.529Z,8.73
2023-04-07T19:21:49.305Z,9.15
2023-04-07T19:24:17.156Z,9.00
2023-04-07T19:26:44.974Z,10.03
2023-04-07T19:29:14.136Z,9.23
2023-04-07T19:31:42.043Z,10.30
2023-04-07T19:34:09.950Z,9.30
2023-04-07T19:36:37.674Z,10.70
2023-04-07T19:39:05.949Z,10.85
2023-04-07T19:41:33.823Z,10.63
2023-04-07T19:44:01.625Z,11.95
2023-04-07T19:46:30.956Z,13.23
2023-04-07T19:48:58.719Z,12.97
2023-04-07T19:51:27.576Z,12.67
2023-04-07T19:53:55.605Z,13.37
2023-04-07T19:56:23.421Z,13.80
2023-04-07T19:58:51.266Z,12.93
2023-04-07T20:01:19.739Z,14.07
2023-04-07T20:03:49.044Z,15.67
2023-04-07T20:06:18.040Z,16.27
2023-04-07T20:08:45.778Z,15.87
2023-04-07T20:11:13.592Z,14.37
2023-04-07T20:13:42.318Z,16.13
2023-04-07T20:16:10.737Z,17.30
2023-04-07T20:18:38.653Z,15.73
2023-04-07T20:21:07.902Z,19.10
2023-04-07T20:23:35.702Z,19.30
2023-04-07T20:26:03.504Z,20.03
2023-04-07T20:28:31.697Z,15.03
2023-04-07T20:31:00.500Z,16.13
2023-04-07T20:33:28.511Z,14.70
2023-04-07T20:35:56.455Z,14.70
2023-04-07T20:38:26.040Z,15.37
2023-04-07T20:40:54.194Z,17.00
2023-04-07T20:43:23.733Z,18.10
2023-04-07T20:45:52.194Z,17.47
2023-04-07T20:48:23.948Z,20.00
2023-04-07T20:50:52.804Z,20.47
2023-04-07T20:53:21.082Z,19.40
2023-04-07T20:55:50.242Z,19.93
2023-04-07T20:58:18.844Z,19.80
2023-04-07T21:00:47.227Z,20.50
2023-04-07T21:03:15.983Z,23.50
2023-04-07T21:05:44.953Z,23.60
2023-04-07T21:08:14.491Z,22.33
2023-04-07T21:10:42.839Z,21.63
2023-04-07T21:13:12.208Z,19.30
2023-04-07T21:15:42.278Z,19.90
2023-04-07T21:18:10.599Z,20.73
2023-04-07T21:20:39.002Z,22.77
2023-04-07T21:23:08.423Z,20.70
2023-04-07T21:25:37.860Z,20.17
2023-04-07T21:28:06.095Z,22.30
2023-04-07T21:30:35.545Z,19.20
2023-04-07T21:33:04.203Z,20.00
2023-04-07T21:35:32.341Z,21.30
2023-04-07T21:38:00.502Z,20.37
2023-04-07T21:40:28.320Z,20.27
2023-04-07T21:42:56.470Z,19.10
2023-04-07T21:45:24.284Z,21.03
2023-04-07T21:47:53.516Z,18.53
2023-04-07T21:50:21.452Z,18.63
2023-04-07T21:52:50.795Z,19.63
2023-04-07T21:55:20.703Z,19.40
2023-04-07T21:57:50.223Z,18.97
2023-04-07T22:00:18.257Z,16.30
2023-04-07T22:02:46.667Z,17.03
2023-04-07T22:05:16.172Z,18.47
2023-04-07T22:07:45.519Z,16.37
2023-04-07T22:10:13.881Z,17.47
2023-04-07T22:12:41.773Z,16.57
2023-04-07T22:15:12.227Z,19.37
2023-04-07T22:17:41.255Z,18.47
2023-04-07T22:20:11.564Z,17.93
2023-04-07T22:22:41.210Z,18.40
2023-04-07T22:25:09.838Z,19.73
2023-04-07T22:27:37.616Z,20.30
2023-04-07T22:30:08.462Z,19.07
2023-04-07T22:32:36.416Z,19.70
2023-04-07T22:35:04.425Z,44.87
2023-04-07T22:37:32.232Z,22.03
2023-04-07T22:40:01.703Z,56.20
2023-04-07T22:42:29.548Z,79.17
2023-04-07T22:44:57.604Z,27.33
2023-04-07T22:47:25.764Z,65.60
2023-04-07T22:49:53.663Z,26.83
2023-04-07T22:52:21.496Z,56.23
2023-04-07T22:54:49.358Z,28.57
2023-04-07T22:57:18.584Z,59.20
2023-04-07T22:59:46.642Z,55.13
2023-04-07T23:02:14.555Z,183.67
2023-04-07T23:04:43.068Z,60.20
2023-04-07T23:07:10.933Z,61.40
2023-04-07T23:09:38.799Z,72.23
2023-04-07T23:12:06.801Z,143.30
2023-04-07T23:14:36.311Z,57.13
2023-04-07T23:17:04.362Z,68.43
2023-04-07T23:19:32.230Z,40.53
2023-04-07T23:22:00.540Z,39.87
2023-04-07T23:24:28.568Z,91.90
2023-04-07T23:26:56.518Z,54.07
2023-04-07T23:29:24.482Z,61.00
2023-04-07T23:31:53.839Z,53.90
2023-04-07T23:34:22.153Z,75.73
2023-04-07T23:36:49.986Z,43.37
2023-04-07T23:39:17.738Z,81.40
2023-04-07T23:41:46.113Z,64.03
2023-04-07T23:44:13.966Z,42.83
2023-04-07T23:46:41.930Z,34.27
2023-04-07T23:49:11.208Z,51.93
2023-04-07T23:51:39.446Z,25.20
2023-04-07T23:54:07.878Z,33.10
2023-04-07T23:56:35.737Z,28.60
2023-04-07T23:59:03.519Z,40.67
